sensor_id;sensor_type;location;lat;lon;timestamp;P1;durP1;ratioP1;P2;durP2;ratioP2
72109;SDS011;59983;52.010;5.420;2023-04-24T00:00:44;6.00;;;5.60;;
72109;SDS011;59983;52.010;5.420;2023-04-24T00:03:11;5.22;;;5.03;;
72109;SDS011;59983;52.010;5.420;2023-04-24T00:05:39;5.38;;;5.05;;
72109;SDS011;59983;52.010;5.420;2023-04-24T00:08:06;5.00;;;4.80;;
72109;SDS011;59983;52.010;5.420;2023-04-24T00:10:33;4.63;;;4.43;;
72109;SDS011;59983;52.010;5.420;2023-04-24T00:12:59;5.90;;;5.70;;
72109;SDS011;59983;52.010;5.420;2023-04-24T00:15:26;5.10;;;4.90;;
72109;SDS011;59983;52.010;5.420;2023-04-24T00:17:52;6.57;;;6.10;;
72109;SDS011;59983;52.010;5.420;2023-04-24T00:20:19;6.67;;;6.37;;
72109;SDS011;59983;52.010;5.420;2023-04-24T00:22:46;7.68;;;5.43;;
72109;SDS011;59983;52.010;5.420;2023-04-24T00:25:12;6.13;;;5.72;;
72109;SDS011;59983;52.010;5.420;2023-04-24T00:27:39;5.55;;;5.15;;
72109;SDS011;59983;52.010;5.420;2023-04-24T00:30:06;5.60;;;5.22;;
72109;SDS011;59983;52.010;5.420;2023-04-24T00:32:33;12.77;;;5.00;;
72109;SDS011;59983;52.010;5.420;2023-04-24T00:34:59;5.53;;;5.07;;
72109;SDS011;59983;52.010;5.420;2023-04-24T00:37:26;5.15;;;4.95;;
72109;SDS011;59983;52.010;5.420;2023-04-24T00:39:52;6.93;;;5.50;;
72109;SDS011;59983;52.010;5.420;2023-04-24T00:42:19;5.10;;;4.90;;
72109;SDS011;59983;52.010;5.420;2023-04-24T00:44:46;4.83;;;4.63;;
72109;SDS011;59983;52.010;5.420;2023-04-24T00:47:13;5.47;;;5.13;;
72109;SDS011;59983;52.010;5.420;2023-04-24T00:49:40;5.97;;;5.68;;
72109;SDS011;59983;52.010;5.420;2023-04-24T00:52:07;6.10;;;5.30;;
72109;SDS011;59983;52.010;5.420;2023-04-24T00:54:35;5.50;;;5.20;;
72109;SDS011;59983;52.010;5.420;2023-04-24T00:57:04;5.50;;;5.20;;
72109;SDS011;59983;52.010;5.420;2023-04-24T00:59:32;5.55;;;5.15;;
72109;SDS011;59983;52.010;5.420;2023-04-24T01:01:59;5.70;;;5.35;;
72109;SDS011;59983;52.010;5.420;2023-04-24T01:04:26;5.70;;;5.30;;
72109;SDS011;59983;52.010;5.420;2023-04-24T01:06:52;5.72;;;5.53;;
72109;SDS011;59983;52.010;5.420;2023-04-24T01:09:23;6.10;;;5.70;;
72109;SDS011;59983;52.010;5.420;2023-04-24T01:11:50;5.47;;;4.97;;
72109;SDS011;59983;52.010;5.420;2023-04-24T01:14:17;5.40;;;5.03;;
72109;SDS011;59983;52.010;5.420;2023-04-24T01:16:43;5.10;;;4.90;;
72109;SDS011;59983;52.010;5.420;2023-04-24T01:19:10;4.50;;;4.30;;
72109;SDS011;59983;52.010;5.420;2023-04-24T01:21:38;5.97;;;5.77;;
72109;SDS011;59983;52.010;5.420;2023-04-24T01:24:06;5.95;;;5.65;;
72109;SDS011;59983;52.010;5.420;2023-04-24T01:26:33;4.90;;;4.70;;
72109;SDS011;59983;52.010;5.420;2023-04-24T01:28:59;4.53;;;4.32;;
72109;SDS011;59983;52.010;5.420;2023-04-24T01:31:26;6.10;;;5.70;;
72109;SDS011;59983;52.010;5.420;2023-04-24T01:33:53;5.23;;;4.93;;
72109;SDS011;59983;52.010;5.420;2023-04-24T01:36:20;5.32;;;4.82;;
72109;SDS011;59983;52.010;5.420;2023-04-24T01:38:49;6.70;;;5.00;;
72109;SDS011;59983;52.010;5.420;2023-04-24T01:41:16;5.57;;;5.20;;
72109;SDS011;59983;52.010;5.420;2023-04-24T01:43:42;4.82;;;4.63;;
72109;SDS011;59983;52.010;5.420;2023-04-24T01:46:09;4.80;;;4.60;;
72109;SDS011;59983;52.010;5.420;2023-04-24T01:48:36;5.15;;;4.85;;
72109;SDS011;59983;52.010;5.420;2023-04-24T01:51:02;4.93;;;4.68;;
72109;SDS011;59983;52.010;5.420;2023-04-24T01:53:29;5.38;;;5.03;;
72109;SDS011;59983;52.010;5.420;2023-04-24T01:55:55;5.25;;;4.95;;
72109;SDS011;59983;52.010;5.420;2023-04-24T01:58:22;5.23;;;4.90;;
72109;SDS011;59983;52.010;5.420;2023-04-24T02:00:48;5.70;;;5.32;;
72109;SDS011;59983;52.010;5.420;2023-04-24T02:03:15;5.60;;;5.30;;
72109;SDS011;59983;52.010;5.420;2023-04-24T02:05:43;5.38;;;5.10;;
72109;SDS011;59983;52.010;5.420;2023-04-24T02:08:11;6.05;;;5.55;;
72109;SDS011;59983;52.010;5.420;2023-04-24T02:10:38;6.87;;;6.50;;
72109;SDS011;59983;52.010;5.420;2023-04-24T02:13:04;7.18;;;6.68;;
72109;SDS011;59983;52.010;5.420;2023-04-24T02:15:31;6.78;;;6.35;;
72109;SDS011;59983;52.010;5.420;2023-04-24T02:17:57;6.78;;;6.38;;
72109;SDS011;59983;52.010;5.420;2023-04-24T02:20:24;7.68;;;7.28;;
72109;SDS011;59983;52.010;5.420;2023-04-24T02:22:50;7.07;;;6.67;;
72109;SDS011;59983;52.010;5.420;2023-04-24T02:25:17;7.35;;;6.85;;
72109;SDS011;59983;52.010;5.420;2023-04-24T02:27:43;7.25;;;6.75;;
72109;SDS011;59983;52.010;5.420;2023-04-24T02:30:10;8.10;;;7.38;;
72109;SDS011;59983;52.010;5.420;2023-04-24T02:32:36;6.95;;;6.45;;
72109;SDS011;59983;52.010;5.420;2023-04-24T02:35:03;6.57;;;6.00;;
72109;SDS011;59983;52.010;5.420;2023-04-24T02:37:30;6.85;;;6.45;;
72109;SDS011;59983;52.010;5.420;2023-04-24T02:39:56;7.53;;;6.90;;
72109;SDS011;59983;52.010;5.420;2023-04-24T02:42:23;7.82;;;7.28;;
72109;SDS011;59983;52.010;5.420;2023-04-24T02:44:49;8.40;;;7.80;;
72109;SDS011;59983;52.010;5.420;2023-04-24T02:47:17;8.83;;;8.27;;
72109;SDS011;59983;52.010;5.420;2023-04-24T02:49:43;8.20;;;7.70;;
72109;SDS011;59983;52.010;5.420;2023-04-24T02:52:10;8.75;;;8.15;;
72109;SDS011;59983;52.010;5.420;2023-04-24T02:54:37;9.10;;;8.52;;
72109;SDS011;59983;52.010;5.420;2023-04-24T02:57:03;12.63;;;8.52;;
72109;SDS011;59983;52.010;5.420;2023-04-24T02:59:30;7.00;;;6.60;;
72109;SDS011;59983;52.010;5.420;2023-04-24T03:01:56;8.38;;;7.68;;
72109;SDS011;59983;52.010;5.420;2023-04-24T03:04:22;9.43;;;8.63;;
72109;SDS011;59983;52.010;5.420;2023-04-24T03:06:49;8.70;;;8.00;;
72109;SDS011;59983;52.010;5.420;2023-04-24T03:09:19;8.10;;;7.50;;
72109;SDS011;59983;52.010;5.420;2023-04-24T03:11:45;10.33;;;9.43;;
72109;SDS011;59983;52.010;5.420;2023-04-24T03:14:12;9.02;;;8.25;;
72109;SDS011;59983;52.010;5.420;2023-04-24T03:16:38;9.13;;;8.52;;
72109;SDS011;59983;52.010;5.420;2023-04-24T03:19:05;9.23;;;8.52;;
72109;SDS011;59983;52.010;5.420;2023-04-24T03:21:31;11.05;;;10.10;;
72109;SDS011;59983;52.010;5.420;2023-04-24T03:23:58;9.80;;;8.83;;
72109;SDS011;59983;52.010;5.420;2023-04-24T03:26:24;10.57;;;9.68;;
72109;SDS011;59983;52.010;5.420;2023-04-24T03:28:51;11.07;;;10.07;;
72109;SDS011;59983;52.010;5.420;2023-04-24T03:31:17;11.48;;;10.38;;
72109;SDS011;59983;52.010;5.420;2023-04-24T03:33:45;11.63;;;10.63;;
72109;SDS011;59983;52.010;5.420;2023-04-24T03:36:11;12.90;;;11.70;;
72109;SDS011;59983;52.010;5.420;2023-04-24T03:38:38;13.13;;;11.90;;
72109;SDS011;59983;52.010;5.420;2023-04-24T03:41:04;18.17;;;14.70;;
72109;SDS011;59983;52.010;5.420;2023-04-24T03:43:31;21.63;;;16.05;;
72109;SDS011;59983;52.010;5.420;2023-04-24T03:45:59;17.55;;;15.35;;
72109;SDS011;59983;52.010;5.420;2023-04-24T03:48:26;26.03;;;16.00;;
72109;SDS011;59983;52.010;5.420;2023-04-24T03:50:52;18.60;;;16.65;;
72109;SDS011;59983;52.010;5.420;2023-04-24T03:53:19;21.77;;;16.25;;
72109;SDS011;59983;52.010;5.420;2023-04-24T03:55:46;28.38;;;16.13;;
72109;SDS011;59983;52.010;5.420;2023-04-24T03:58:12;18.17;;;14.25;;
72109;SDS011;59983;52.010;5.420;2023-04-24T04:00:42;12.53;;;11.33;;
72109;SDS011;59983;52.010;5.420;2023-04-24T04:03:10;11.07;;;9.88;;
72109;SDS011;59983;52.010;5.420;2023-04-24T04:05:37;9.98;;;9.00;;
72109;SDS011;59983;52.010;5.420;2023-04-24T04:08:03;8.55;;;7.85;;
72109;SDS011;59983;52.010;5.420;2023-04-24T04:10:30;8.05;;;7.40;;
72109;SDS011;59983;52.010;5.420;2023-04-24T04:12:57;8.33;;;7.60;;
72109;SDS011;59983;52.010;5.420;2023-04-24T04:15:23;8.00;;;7.40;;
72109;SDS011;59983;52.010;5.420;2023-04-24T04:17:50;7.18;;;6.57;;
72109;SDS011;59983;52.010;5.420;2023-04-24T04:20:17;10.55;;;8.73;;
72109;SDS011;59983;52.010;5.420;2023-04-24T04:22:43;7.85;;;7.35;;
72109;SDS011;59983;52.010;5.420;2023-04-24T04:25:10;7.80;;;7.30;;
72109;SDS011;59983;52.010;5.420;2023-04-24T04:27:37;6.35;;;5.85;;
72109;SDS011;59983;52.010;5.420;2023-04-24T04:30:05;5.40;;;5.10;;
72109;SDS011;59983;52.010;5.420;2023-04-24T04:32:32;6.40;;;6.00;;
72109;SDS011;59983;52.010;5.420;2023-04-24T04:34:59;6.35;;;5.95;;
72109;SDS011;59983;52.010;5.420;2023-04-24T04:37:33;6.07;;;5.47;;
72109;SDS011;59983;52.010;5.420;2023-04-24T04:40:00;8.55;;;6.57;;
72109;SDS011;59983;52.010;5.420;2023-04-24T04:42:26;6.32;;;5.85;;
72109;SDS011;59983;52.010;5.420;2023-04-24T04:44:54;6.78;;;6.35;;
72109;SDS011;59983;52.010;5.420;2023-04-24T04:47:23;7.03;;;6.63;;
72109;SDS011;59983;52.010;5.420;2023-04-24T04:49:50;6.57;;;6.17;;
72109;SDS011;59983;52.010;5.420;2023-04-24T04:52:19;6.55;;;5.85;;
72109;SDS011;59983;52.010;5.420;2023-04-24T04:54:46;6.10;;;5.70;;
72109;SDS011;59983;52.010;5.420;2023-04-24T04:57:13;8.68;;;6.13;;
72109;SDS011;59983;52.010;5.420;2023-04-24T04:59:39;6.40;;;5.93;;
72109;SDS011;59983;52.010;5.420;2023-04-24T05:02:08;6.53;;;6.07;;
72109;SDS011;59983;52.010;5.420;2023-04-24T05:04:35;6.38;;;5.97;;
72109;SDS011;59983;52.010;5.420;2023-04-24T05:07:02;6.43;;;6.03;;
72109;SDS011;59983;52.010;5.420;2023-04-24T05:09:29;5.97;;;5.47;;
72109;SDS011;59983;52.010;5.420;2023-04-24T05:11:55;6.72;;;6.35;;
72109;SDS011;59983;52.010;5.420;2023-04-24T05:14:22;6.17;;;5.77;;
72109;SDS011;59983;52.010;5.420;2023-04-24T05:16:48;7.53;;;6.82;;
72109;SDS011;59983;52.010;5.420;2023-04-24T05:19:15;6.88;;;6.32;;
72109;SDS011;59983;52.010;5.420;2023-04-24T05:21:41;5.55;;;5.15;;
72109;SDS011;59983;52.010;5.420;2023-04-24T05:24:08;5.95;;;5.55;;
72109;SDS011;59983;52.010;5.420;2023-04-24T05:26:35;5.97;;;5.67;;
72109;SDS011;59983;52.010;5.420;2023-04-24T05:29:02;5.97;;;5.68;;
72109;SDS011;59983;52.010;5.420;2023-04-24T05:31:28;6.30;;;5.90;;
72109;SDS011;59983;52.010;5.420;2023-04-24T05:33:55;5.68;;;5.38;;
72109;SDS011;59983;52.010;5.420;2023-04-24T05:36:22;5.80;;;5.40;;
72109;SDS011;59983;52.010;5.420;2023-04-24T05:38:48;5.37;;;4.90;;
72109;SDS011;59983;52.010;5.420;2023-04-24T05:41:14;6.72;;;6.25;;
72109;SDS011;59983;52.010;5.420;2023-04-24T05:43:41;6.78;;;6.15;;
72109;SDS011;59983;52.010;5.420;2023-04-24T05:46:07;5.03;;;4.72;;
72109;SDS011;59983;52.010;5.420;2023-04-24T05:48:34;5.45;;;5.10;;
72109;SDS011;59983;52.010;5.420;2023-04-24T05:51:01;5.87;;;5.40;;
72109;SDS011;59983;52.010;5.420;2023-04-24T05:53:27;11.93;;;8.27;;
72109;SDS011;59983;52.010;5.420;2023-04-24T05:55:54;19.35;;;11.77;;
72109;SDS011;59983;52.010;5.420;2023-04-24T05:58:21;17.10;;;8.90;;
72109;SDS011;59983;52.010;5.420;2023-04-24T06:00:47;10.23;;;8.18;;
72109;SDS011;59983;52.010;5.420;2023-04-24T06:03:14;9.17;;;8.03;;
72109;SDS011;59983;52.010;5.420;2023-04-24T06:05:41;8.70;;;7.35;;
72109;SDS011;59983;52.010;5.420;2023-04-24T06:08:07;8.55;;;7.95;;
72109;SDS011;59983;52.010;5.420;2023-04-24T06:10:34;7.70;;;5.40;;
72109;SDS011;59983;52.010;5.420;2023-04-24T06:13:01;9.65;;;6.78;;
72109;SDS011;59983;52.010;5.420;2023-04-24T06:15:30;5.27;;;4.87;;
72109;SDS011;59983;52.010;5.420;2023-04-24T06:17:57;5.40;;;5.10;;
72109;SDS011;59983;52.010;5.420;2023-04-24T06:20:24;5.22;;;5.03;;
72109;SDS011;59983;52.010;5.420;2023-04-24T06:22:51;4.53;;;4.13;;
72109;SDS011;59983;52.010;5.420;2023-04-24T06:25:17;5.65;;;5.35;;
72109;SDS011;59983;52.010;5.420;2023-04-24T06:27:45;4.80;;;4.50;;
72109;SDS011;59983;52.010;5.420;2023-04-24T06:30:11;4.85;;;4.55;;
72109;SDS011;59983;52.010;5.420;2023-04-24T06:32:39;4.50;;;4.30;;
72109;SDS011;59983;52.010;5.420;2023-04-24T06:35:06;4.30;;;4.10;;
72109;SDS011;59983;52.010;5.420;2023-04-24T06:37:34;5.28;;;4.97;;
72109;SDS011;59983;52.010;5.420;2023-04-24T06:40:00;5.00;;;4.60;;
72109;SDS011;59983;52.010;5.420;2023-04-24T06:42:27;5.72;;;5.20;;
72109;SDS011;59983;52.010;5.420;2023-04-24T06:44:54;4.88;;;4.68;;
72109;SDS011;59983;52.010;5.420;2023-04-24T06:47:20;6.57;;;5.97;;
72109;SDS011;59983;52.010;5.420;2023-04-24T06:49:47;5.88;;;5.65;;
72109;SDS011;59983;52.010;5.420;2023-04-24T06:52:13;5.73;;;5.33;;
72109;SDS011;59983;52.010;5.420;2023-04-24T06:54:41;6.30;;;6.00;;
72109;SDS011;59983;52.010;5.420;2023-04-24T06:57:08;5.72;;;5.43;;
72109;SDS011;59983;52.010;5.420;2023-04-24T06:59:35;5.60;;;5.30;;
72109;SDS011;59983;52.010;5.420;2023-04-24T07:02:01;6.65;;;6.32;;
72109;SDS011;59983;52.010;5.420;2023-04-24T07:04:29;5.60;;;5.10;;
72109;SDS011;59983;52.010;5.420;2023-04-24T07:06:56;7.63;;;7.03;;
72109;SDS011;59983;52.010;5.420;2023-04-24T07:09:24;9.23;;;8.50;;
72109;SDS011;59983;52.010;5.420;2023-04-24T07:11:52;9.35;;;8.43;;
72109;SDS011;59983;52.010;5.420;2023-04-24T07:14:20;12.65;;;11.35;;
72109;SDS011;59983;52.010;5.420;2023-04-24T07:16:46;16.90;;;11.90;;
72109;SDS011;59983;52.010;5.420;2023-04-24T07:19:13;15.52;;;11.93;;
72109;SDS011;59983;52.010;5.420;2023-04-24T07:21:40;13.68;;;12.02;;
72109;SDS011;59983;52.010;5.420;2023-04-24T07:24:07;15.80;;;12.48;;
72109;SDS011;59983;52.010;5.420;2023-04-24T07:26:37;13.23;;;12.05;;
72109;SDS011;59983;52.010;5.420;2023-04-24T07:29:06;13.83;;;12.23;;
72109;SDS011;59983;52.010;5.420;2023-04-24T07:31:33;17.60;;;12.35;;
72109;SDS011;59983;52.010;5.420;2023-04-24T07:34:00;19.67;;;12.27;;
72109;SDS011;59983;52.010;5.420;2023-04-24T07:36:27;12.98;;;11.48;;
72109;SDS011;59983;52.010;5.420;2023-04-24T07:38:54;13.32;;;12.02;;
72109;SDS011;59983;52.010;5.420;2023-04-24T07:41:22;21.40;;;13.30;;
72109;SDS011;59983;52.010;5.420;2023-04-24T07:43:50;19.65;;;14.05;;
72109;SDS011;59983;52.010;5.420;2023-04-24T07:46:17;19.98;;;13.45;;
72109;SDS011;59983;52.010;5.420;2023-04-24T07:48:43;16.38;;;12.20;;
72109;SDS011;59983;52.010;5.420;2023-04-24T07:51:10;21.95;;;12.57;;
72109;SDS011;59983;52.010;5.420;2023-04-24T07:53:39;13.30;;;10.97;;
72109;SDS011;59983;52.010;5.420;2023-04-24T07:56:06;14.18;;;11.15;;
72109;SDS011;59983;52.010;5.420;2023-04-24T07:58:33;15.82;;;12.63;;
72109;SDS011;59983;52.010;5.420;2023-04-24T08:01:00;15.30;;;11.98;;
72109;SDS011;59983;52.010;5.420;2023-04-24T08:03:27;19.58;;;11.98;;
72109;SDS011;59983;52.010;5.420;2023-04-24T08:05:53;16.27;;;10.57;;
72109;SDS011;59983;52.010;5.420;2023-04-24T08:08:21;15.05;;;11.23;;
72109;SDS011;59983;52.010;5.420;2023-04-24T08:10:48;13.88;;;11.07;;
72109;SDS011;59983;52.010;5.420;2023-04-24T08:13:16;18.33;;;10.45;;
72109;SDS011;59983;52.010;5.420;2023-04-24T08:15:42;19.00;;;11.48;;
72109;SDS011;59983;52.010;5.420;2023-04-24T08:18:09;21.37;;;10.77;;
72109;SDS011;59983;52.010;5.420;2023-04-24T08:20:38;18.08;;;10.15;;
72109;SDS011;59983;52.010;5.420;2023-04-24T08:23:04;17.75;;;9.27;;
72109;SDS011;59983;52.010;5.420;2023-04-24T08:25:31;22.15;;;9.45;;
72109;SDS011;59983;52.010;5.420;2023-04-24T08:27:58;14.43;;;8.82;;
72109;SDS011;59983;52.010;5.420;2023-04-24T08:30:24;20.97;;;10.03;;
72109;SDS011;59983;52.010;5.420;2023-04-24T08:32:51;15.77;;;8.38;;
72109;SDS011;59983;52.010;5.420;2023-04-24T08:35:17;11.77;;;8.20;;
72109;SDS011;59983;52.010;5.420;2023-04-24T08:37:44;15.60;;;7.78;;
72109;SDS011;59983;52.010;5.420;2023-04-24T08:40:13;16.45;;;8.77;;
72109;SDS011;59983;52.010;5.420;2023-04-24T08:42:41;18.67;;;7.80;;
72109;SDS011;59983;52.010;5.420;2023-04-24T08:45:10;16.63;;;7.13;;
72109;SDS011;59983;52.010;5.420;2023-04-24T08:47:39;21.05;;;6.70;;
72109;SDS011;59983;52.010;5.420;2023-04-24T08:50:07;14.32;;;6.70;;
72109;SDS011;59983;52.010;5.420;2023-04-24T08:52:34;14.68;;;6.60;;
72109;SDS011;59983;52.010;5.420;2023-04-24T08:55:02;13.47;;;6.03;;
72109;SDS011;59983;52.010;5.420;2023-04-24T08:57:28;11.27;;;5.65;;
72109;SDS011;59983;52.010;5.420;2023-04-24T08:59:57;17.23;;;7.82;;
72109;SDS011;59983;52.010;5.420;2023-04-24T09:02:24;12.05;;;5.63;;
72109;SDS011;59983;52.010;5.420;2023-04-24T09:04:52;10.50;;;5.75;;
72109;SDS011;59983;52.010;5.420;2023-04-24T09:07:19;14.03;;;5.57;;
72109;SDS011;59983;52.010;5.420;2023-04-24T09:09:48;12.48;;;5.85;;
72109;SDS011;59983;52.010;5.420;2023-04-24T09:12:17;9.57;;;6.20;;
72109;SDS011;59983;52.010;5.420;2023-04-24T09:14:45;9.35;;;5.97;;
72109;SDS011;59983;52.010;5.420;2023-04-24T09:17:11;9.77;;;5.65;;
72109;SDS011;59983;52.010;5.420;2023-04-24T09:19:38;8.60;;;5.37;;
72109;SDS011;59983;52.010;5.420;2023-04-24T09:22:09;13.95;;;5.53;;
72109;SDS011;59983;52.010;5.420;2023-04-24T09:24:37;15.07;;;6.22;;
72109;SDS011;59983;52.010;5.420;2023-04-24T09:27:04;12.35;;;6.20;;
72109;SDS011;59983;52.010;5.420;2023-04-24T09:29:31;13.15;;;6.13;;
72109;SDS011;59983;52.010;5.420;2023-04-24T09:31:59;15.10;;;6.50;;
72109;SDS011;59983;52.010;5.420;2023-04-24T09:34:26;11.43;;;6.32;;
72109;SDS011;59983;52.010;5.420;2023-04-24T09:36:53;10.10;;;5.43;;
72109;SDS011;59983;52.010;5.420;2023-04-24T09:39:20;11.68;;;5.43;;
72109;SDS011;59983;52.010;5.420;2023-04-24T09:41:51;11.63;;;5.30;;
72109;SDS011;59983;52.010;5.420;2023-04-24T09:44:25;10.73;;;4.60;;
72109;SDS011;59983;52.010;5.420;2023-04-24T09:46:57;5.47;;;4.80;;
72109;SDS011;59983;52.010;5.420;2023-04-24T09:49:29;12.18;;;5.65;;
72109;SDS011;59983;52.010;5.420;2023-04-24T09:52:09;8.18;;;5.78;;
72109;SDS011;59983;52.010;5.420;2023-04-24T09:54:36;7.30;;;5.70;;
72109;SDS011;59983;52.010;5.420;2023-04-24T09:57:04;10.10;;;5.53;;
72109;SDS011;59983;52.010;5.420;2023-04-24T09:59:33;6.93;;;6.30;;
72109;SDS011;59983;52.010;5.420;2023-04-24T10:02:02;5.15;;;4.78;;
72109;SDS011;59983;52.010;5.420;2023-04-24T10:04:29;5.53;;;4.65;;
72109;SDS011;59983;52.010;5.420;2023-04-24T10:06:56;6.38;;;5.28;;
72109;SDS011;59983;52.010;5.420;2023-04-24T10:09:24;8.63;;;4.83;;
72109;SDS011;59983;52.010;5.420;2023-04-24T10:11:52;7.63;;;4.30;;
72109;SDS011;59983;52.010;5.420;2023-04-24T10:14:22;4.80;;;4.45;;
72109;SDS011;59983;52.010;5.420;2023-04-24T10:16:49;8.15;;;4.47;;
72109;SDS011;59983;52.010;5.420;2023-04-24T10:19:19;5.35;;;3.85;;
72109;SDS011;59983;52.010;5.420;2023-04-24T10:21:46;15.37;;;4.57;;
72109;SDS011;59983;52.010;5.420;2023-04-24T10:24:14;6.10;;;3.85;;
72109;SDS011;59983;52.010;5.420;2023-04-24T10:26:45;4.15;;;3.70;;
72109;SDS011;59983;52.010;5.420;2023-04-24T10:29:14;8.25;;;4.25;;
72109;SDS011;59983;52.010;5.420;2023-04-24T10:31:42;6.22;;;4.90;;
72109;SDS011;59983;52.010;5.420;2023-04-24T10:34:12;4.40;;;4.07;;
72109;SDS011;59983;52.010;5.420;2023-04-24T10:36:41;4.25;;;3.80;;
72109;SDS011;59983;52.010;5.420;2023-04-24T10:39:12;4.63;;;4.05;;
72109;SDS011;59983;52.010;5.420;2023-04-24T10:41:41;8.90;;;4.28;;
72109;SDS011;59983;52.010;5.420;2023-04-24T10:44:08;3.88;;;3.67;;
72109;SDS011;59983;52.010;5.420;2023-04-24T10:46:36;4.20;;;3.90;;
72109;SDS011;59983;52.010;5.420;2023-04-24T10:49:07;3.70;;;3.58;;
72109;SDS011;59983;52.010;5.420;2023-04-24T10:57:25;3.90;;;3.47;;
72109;SDS011;59983;52.010;5.420;2023-04-24T10:59:47;4.67;;;3.83;;
72109;SDS011;59983;52.010;5.420;2023-04-24T11:02:15;6.15;;;3.35;;
72109;SDS011;59983;52.010;5.420;2023-04-24T11:04:43;4.78;;;3.38;;
72109;SDS011;59983;52.010;5.420;2023-04-24T11:07:10;6.05;;;3.95;;
72109;SDS011;59983;52.010;5.420;2023-04-24T11:09:37;6.85;;;3.38;;
72109;SDS011;59983;52.010;5.420;2023-04-24T11:12:07;4.23;;;3.93;;
72109;SDS011;59983;52.010;5.420;2023-04-24T11:17:34;4.97;;;3.72;;
72109;SDS011;59983;52.010;5.420;2023-04-24T11:20:07;3.80;;;3.50;;
72109;SDS011;59983;52.010;5.420;2023-04-24T11:22:55;6.07;;;3.38;;
72109;SDS011;59983;52.010;5.420;2023-04-24T11:25:30;3.03;;;2.83;;
72109;SDS011;59983;52.010;5.420;2023-04-24T11:28:04;4.22;;;3.83;;
72109;SDS011;59983;52.010;5.420;2023-04-24T11:30:32;6.35;;;4.32;;
72109;SDS011;59983;52.010;5.420;2023-04-24T11:33:03;4.72;;;4.50;;
72109;SDS011;59983;52.010;5.420;2023-04-24T11:35:34;5.03;;;4.72;;
72109;SDS011;59983;52.010;5.420;2023-04-24T11:38:05;5.07;;;4.57;;
72109;SDS011;59983;52.010;5.420;2023-04-24T11:40:36;6.60;;;4.30;;
72109;SDS011;59983;52.010;5.420;2023-04-24T11:43:04;5.50;;;5.15;;
72109;SDS011;59983;52.010;5.420;2023-04-24T11:45:32;5.65;;;4.00;;
72109;SDS011;59983;52.010;5.420;2023-04-24T11:47:59;4.82;;;4.35;;
72109;SDS011;59983;52.010;5.420;2023-04-24T11:50:26;4.20;;;3.80;;
72109;SDS011;59983;52.010;5.420;2023-04-24T11:52:54;4.07;;;3.88;;
72109;SDS011;59983;52.010;5.420;2023-04-24T11:57:49;4.43;;;4.13;;
72109;SDS011;59983;52.010;5.420;2023-04-24T12:00:18;3.75;;;3.55;;
72109;SDS011;59983;52.010;5.420;2023-04-24T12:02:47;4.53;;;4.13;;
72109;SDS011;59983;52.010;5.420;2023-04-24T12:05:19;3.50;;;3.30;;
72109;SDS011;59983;52.010;5.420;2023-04-24T12:07:51;3.42;;;3.17;;
72109;SDS011;59983;52.010;5.420;2023-04-24T12:10:24;3.78;;;2.80;;
72109;SDS011;59983;52.010;5.420;2023-04-24T12:12:55;3.15;;;3.00;;
72109;SDS011;59983;52.010;5.420;2023-04-24T12:15:23;5.00;;;3.73;;
72109;SDS011;59983;52.010;5.420;2023-04-24T12:17:51;8.90;;;4.00;;
72109;SDS011;59983;52.010;5.420;2023-04-24T12:20:23;4.85;;;4.32;;
72109;SDS011;59983;52.010;5.420;2023-04-24T12:22:52;4.65;;;3.88;;
72109;SDS011;59983;52.010;5.420;2023-04-24T12:25:30;4.90;;;3.67;;
72109;SDS011;59983;52.010;5.420;2023-04-24T12:30:30;3.60;;;3.40;;
72109;SDS011;59983;52.010;5.420;2023-04-24T12:32:59;4.03;;;3.75;;
72109;SDS011;59983;52.010;5.420;2023-04-24T12:35:27;6.25;;;4.55;;
72109;SDS011;59983;52.010;5.420;2023-04-24T12:37:55;4.25;;;3.85;;
72109;SDS011;59983;52.010;5.420;2023-04-24T12:40:22;3.53;;;3.23;;
72109;SDS011;59983;52.010;5.420;2023-04-24T12:42:51;8.05;;;3.67;;
72109;SDS011;59983;52.010;5.420;2023-04-24T12:45:18;6.25;;;3.70;;
72109;SDS011;59983;52.010;5.420;2023-04-24T12:47:45;8.82;;;4.18;;
72109;SDS011;59983;52.010;5.420;2023-04-24T12:50:13;6.95;;;4.43;;
72109;SDS011;59983;52.010;5.420;2023-04-24T12:52:41;7.00;;;4.53;;
72109;SDS011;59983;52.010;5.420;2023-04-24T12:55:09;5.18;;;4.72;;
72109;SDS011;59983;52.010;5.420;2023-04-24T12:57:37;7.10;;;5.05;;
72109;SDS011;59983;52.010;5.420;2023-04-24T13:00:06;4.50;;;4.07;;
72109;SDS011;59983;52.010;5.420;2023-04-24T13:02:34;5.40;;;4.15;;
72109;SDS011;59983;52.010;5.420;2023-04-24T13:05:02;4.10;;;3.80;;
72109;SDS011;59983;52.010;5.420;2023-04-24T13:07:29;13.52;;;4.47;;
72109;SDS011;59983;52.010;5.420;2023-04-24T13:09:55;6.25;;;3.95;;
72109;SDS011;59983;52.010;5.420;2023-04-24T13:12:23;7.03;;;4.25;;
72109;SDS011;59983;52.010;5.420;2023-04-24T13:14:51;5.78;;;4.25;;
72109;SDS011;59983;52.010;5.420;2023-04-24T13:17:18;8.47;;;4.47;;
72109;SDS011;59983;52.010;5.420;2023-04-24T13:19:45;4.88;;;4.47;;
72109;SDS011;59983;52.010;5.420;2023-04-24T13:22:12;9.27;;;5.20;;
72109;SDS011;59983;52.010;5.420;2023-04-24T13:24:39;5.88;;;4.70;;
72109;SDS011;59983;52.010;5.420;2023-04-24T13:27:07;6.40;;;5.68;;
72109;SDS011;59983;52.010;5.420;2023-04-24T13:29:34;6.97;;;3.87;;
72109;SDS011;59983;52.010;5.420;2023-04-24T13:32:00;5.22;;;3.80;;
72109;SDS011;59983;52.010;5.420;2023-04-24T13:34:27;4.45;;;3.88;;
72109;SDS011;59983;52.010;5.420;2023-04-24T13:36:55;12.35;;;5.15;;
72109;SDS011;59983;52.010;5.420;2023-04-24T13:39:23;6.05;;;3.92;;
72109;SDS011;59983;52.010;5.420;2023-04-24T13:41:51;12.50;;;4.20;;
72109;SDS011;59983;52.010;5.420;2023-04-24T13:44:18;13.82;;;4.13;;
72109;SDS011;59983;52.010;5.420;2023-04-24T13:46:47;12.30;;;4.57;;
72109;SDS011;59983;52.010;5.420;2023-04-24T13:49:15;8.85;;;4.78;;
72109;SDS011;59983;52.010;5.420;2023-04-24T13:51:42;6.88;;;3.65;;
72109;SDS011;59983;52.010;5.420;2023-04-24T13:54:09;7.50;;;4.40;;
72109;SDS011;59983;52.010;5.420;2023-04-24T13:56:36;6.57;;;4.30;;
72109;SDS011;59983;52.010;5.420;2023-04-24T13:59:02;6.60;;;3.63;;
72109;SDS011;59983;52.010;5.420;2023-04-24T14:01:29;7.00;;;4.03;;
72109;SDS011;59983;52.010;5.420;2023-04-24T14:03:55;5.90;;;3.95;;
72109;SDS011;59983;52.010;5.420;2023-04-24T14:06:23;8.57;;;3.87;;
72109;SDS011;59983;52.010;5.420;2023-04-24T14:08:50;5.20;;;4.65;;
72109;SDS011;59983;52.010;5.420;2023-04-24T14:11:17;8.60;;;4.28;;
72109;SDS011;59983;52.010;5.420;2023-04-24T14:13:44;7.10;;;4.25;;
72109;SDS011;59983;52.010;5.420;2023-04-24T14:16:12;9.80;;;4.47;;
72109;SDS011;59983;52.010;5.420;2023-04-24T14:18:39;7.90;;;3.67;;
72109;SDS011;59983;52.010;5.420;2023-04-24T14:21:05;6.50;;;3.53;;
72109;SDS011;59983;52.010;5.420;2023-04-24T14:23:32;8.95;;;4.20;;
72109;SDS011;59983;52.010;5.420;2023-04-24T14:25:59;6.28;;;3.70;;
72109;SDS011;59983;52.010;5.420;2023-04-24T14:28:26;8.95;;;4.00;;
72109;SDS011;59983;52.010;5.420;2023-04-24T14:30:52;9.47;;;3.90;;
72109;SDS011;59983;52.010;5.420;2023-04-24T14:33:19;12.73;;;4.00;;
72109;SDS011;59983;52.010;5.420;2023-04-24T14:35:46;6.93;;;4.68;;
72109;SDS011;59983;52.010;5.420;2023-04-24T14:38:12;5.20;;;3.70;;
72109;SDS011;59983;52.010;5.420;2023-04-24T14:40:39;9.75;;;4.70;;
72109;SDS011;59983;52.010;5.420;2023-04-24T14:43:09;7.30;;;4.10;;
72109;SDS011;59983;52.010;5.420;2023-04-24T14:45:36;4.90;;;3.92;;
72109;SDS011;59983;52.010;5.420;2023-04-24T14:48:04;9.70;;;4.03;;
72109;SDS011;59983;52.010;5.420;2023-04-24T14:50:30;10.05;;;4.82;;
72109;SDS011;59983;52.010;5.420;2023-04-24T14:52:57;11.70;;;4.55;;
72109;SDS011;59983;52.010;5.420;2023-04-24T14:55:24;6.67;;;4.20;;
72109;SDS011;59983;52.010;5.420;2023-04-24T14:57:52;9.13;;;4.00;;